PATA Airport Information

Runway Information
Runway 07 Length 4400 ft width 150 ft
Elevation 223 ft Threshold 0 ft Heading 89
Runway 25 Length 4400 ft Width 150 ft
Elevation 236 ft Threshold 0 ft Heading 269
Airport Frequencies
Airport Navaids
Type NDB Name Bear Creek Frequency 212 KHZ
Type VOR-DME Name Tanana Frequency 116600 KHZ
Airport Weather Information & NOTAM
ADDS - METARS form results

(2204 UTC 22 July 2018)
 
METAR text: PATA 222152Z 00000KT 10SM FEW080 SCT200 28/13 A3015 RMK AO2 SLP210 T02780133
Conditions at: PATA (TANANA , AK, US) observed 2152 UTC 22 July 2018
Temperature: 27.8°C (82°F)
Dewpoint: 13.3°C (56°F) [RH = 41%]
Pressure (altimeter): 30.15 inches Hg (1021.1 mb)
[Sea-level pressure: 1021.0 mb]
Winds: calm
Visibility: 10 or more miles (16+ km)
Ceiling: at least 12,000 feet AGL
Clouds: few clouds at 8000 feet AGL
scattered clouds at 20000 feet AGL
Weather: no significant weather observed at this time